Time;durP1;ratioP1;P1;durP2;ratioP2;P2;SDS_P1;SDS_P2;PMS_P1;PMS_P2;Temp;Humidity;BMP_temperature;BMP_pressure;BME280_temperature;BME280_humidity;BME280_pressure;Samples;Min_cycle;Max_cycle;Signal;HPM_P1;HPM_P2
2023/03/18 00:01:02;;;;;;;12.53;5.77;;;;;;;;;;5034658;28;20188;-83
2023/03/18 00:03:29;;;;;;;9.83;5.53;;;;;;;;;;5036205;28;20179;-83
2023/03/18 00:06:02;;;;;;;8.13;5.43;;;;;;;;;;5036798;28;20186;-83
2023/03/18 00:08:28;;;;;;;8.60;5.43;;;;;;;;;;5036356;28;20247;-83
2023/03/18 00:10:55;;;;;;;9.07;5.27;;;;;;;;;;5027046;28;20220;-78
2023/03/18 00:13:21;;;;;;;9.70;5.80;;;;;;;;;;5000102;28;20236;-77
2023/03/18 00:15:50;;;;;;;8.17;5.93;;;;;;;;;;5000047;28;20188;-77
2023/03/18 00:18:16;;;;;;;12.83;5.83;;;;;;;;;;5033770;28;20284;-78
2023/03/18 00:20:42;;;;;;;10.77;6.20;;;;;;;;;;5015332;28;20279;-77
2023/03/18 00:23:08;;;;;;;10.70;5.90;;;;;;;;;;5016602;28;20177;-77
2023/03/18 00:25:34;;;;;;;9.37;5.90;;;;;;;;;;5016188;28;20212;-77
2023/03/18 00:28:01;;;;;;;12.93;6.33;;;;;;;;;;5016369;28;20191;-83
2023/03/18 00:30:27;;;;;;;7.30;5.50;;;;;;;;;;4999331;28;20212;-83
2023/03/18 00:32:53;;;;;;;10.60;6.03;;;;;;;;;;5000125;28;20185;-83
2023/03/18 00:35:19;;;;;;;10.47;5.97;;;;;;;;;;5016574;28;20196;-83
2023/03/18 00:37:47;;;;;;;8.90;6.53;;;;;;;;;;4999616;28;20180;-82
2023/03/18 00:40:19;;;;;;;11.80;6.20;;;;;;;;;;5004466;28;20189;-82
2023/03/18 00:42:56;;;;;;;9.10;6.47;;;;;;;;;;5019821;28;20240;-83
2023/03/18 00:45:23;;;;;;;8.67;6.63;;;;;;;;;;5020021;28;20177;-83
2023/03/18 00:47:49;;;;;;;12.00;6.03;;;;;;;;;;5019716;28;20180;-83
2023/03/18 00:50:15;;;;;;;12.17;6.63;;;;;;;;;;5019789;28;20184;-83
2023/03/18 00:52:41;;;;;;;8.90;6.30;;;;;;;;;;5016756;28;20189;-83
2023/03/18 00:55:07;;;;;;;11.50;6.70;;;;;;;;;;5020610;28;20244;-83
2023/03/18 00:57:34;;;;;;;12.30;6.50;;;;;;;;;;5019840;28;20181;-84
2023/03/18 01:00:00;;;;;;;12.07;6.30;;;;;;;;;;5020157;28;20231;-77
2023/03/18 01:02:28;;;;;;;9.17;6.43;;;;;;;;;;5037013;28;20173;-77
2023/03/18 01:04:55;;;;;;;11.67;6.63;;;;;;;;;;5037346;28;20179;-77
2023/03/18 01:07:22;;;;;;;10.07;7.63;;;;;;;;;;5019475;28;20188;-77
2023/03/18 01:09:48;;;;;;;12.97;7.23;;;;;;;;;;5019649;28;20267;-78
2023/03/18 01:12:14;;;;;;;12.80;7.50;;;;;;;;;;5019320;28;20228;-77
2023/03/18 01:14:40;;;;;;;8.77;6.60;;;;;;;;;;5037054;28;20204;-77
2023/03/18 01:17:07;;;;;;;11.83;7.53;;;;;;;;;;5036276;28;20180;-81
2023/03/18 01:19:34;;;;;;;12.73;7.63;;;;;;;;;;5035625;28;20187;-81
2023/03/18 01:22:00;;;;;;;10.60;7.20;;;;;;;;;;5035980;28;20192;-82
2023/03/18 01:24:27;;;;;;;14.07;7.53;;;;;;;;;;5036806;28;20248;-81
2023/03/18 01:26:53;;;;;;;10.50;7.40;;;;;;;;;;5003835;28;20212;-81
2023/03/18 01:29:21;;;;;;;10.27;7.67;;;;;;;;;;5036644;28;20173;-81
2023/03/18 01:31:48;;;;;;;10.73;7.60;;;;;;;;;;5036234;28;20220;-81
2023/03/18 01:34:15;;;;;;;12.67;7.73;;;;;;;;;;5018227;28;20275;-77
2023/03/18 01:36:41;;;;;;;8.83;7.40;;;;;;;;;;5019261;28;20184;-76
2023/03/18 01:39:08;;;;;;;13.10;7.57;;;;;;;;;;5019115;28;20184;-77
2023/03/18 01:41:35;;;;;;;9.47;7.10;;;;;;;;;;5036367;28;20185;-77
2023/03/18 01:44:03;;;;;;;11.83;7.50;;;;;;;;;;5018382;28;20252;-77
2023/03/18 01:46:29;;;;;;;12.23;7.50;;;;;;;;;;5018786;28;20220;-76
2023/03/18 01:48:55;;;;;;;10.77;7.33;;;;;;;;;;5024203;28;20236;-76
2023/03/18 01:51:23;;;;;;;12.57;7.53;;;;;;;;;;4982079;28;20228;-82
2023/03/18 01:53:50;;;;;;;11.67;7.23;;;;;;;;;;5003041;28;20187;-81
2023/03/18 01:56:17;;;;;;;10.77;8.60;;;;;;;;;;5038345;28;20176;-82
2023/03/18 01:58:45;;;;;;;14.20;7.67;;;;;;;;;;5055931;28;20179;-81
2023/03/18 02:01:32;;;;;;;9.70;7.70;;;;;;;;;;5038230;28;20186;-81
2023/03/18 02:03:59;;;;;;;12.53;7.60;;;;;;;;;;5016161;28;20181;-82
2023/03/18 02:06:25;;;;;;;9.53;7.67;;;;;;;;;;4998870;28;20189;-81
2023/03/18 02:08:51;;;;;;;12.60;8.17;;;;;;;;;;4999336;28;20236;-81
2023/03/18 02:11:17;;;;;;;10.50;7.57;;;;;;;;;;4998583;28;20213;-81
2023/03/18 02:13:44;;;;;;;12.83;7.83;;;;;;;;;;4999124;28;20228;-80
2023/03/18 02:16:17;;;;;;;12.30;8.13;;;;;;;;;;5055690;28;20176;-81
2023/03/18 02:18:45;;;;;;;14.73;8.73;;;;;;;;;;5038078;28;20176;-81
2023/03/18 02:21:31;;;;;;;11.87;8.33;;;;;;;;;;5055597;28;20191;-81
2023/03/18 02:24:01;;;;;;;14.20;9.17;;;;;;;;;;5026869;28;20192;-77
2023/03/18 02:26:31;;;;;;;11.63;7.90;;;;;;;;;;5018158;28;20206;-77
2023/03/18 02:29:01;;;;;;;14.93;9.27;;;;;;;;;;5017941;28;20184;-77
2023/03/18 02:31:29;;;;;;;14.03;9.13;;;;;;;;;;5026944;28;20294;-77
2023/03/18 02:33:55;;;;;;;11.13;9.07;;;;;;;;;;5025407;28;20181;-77
2023/03/18 02:36:24;;;;;;;12.47;8.30;;;;;;;;;;5001741;28;20184;-77
2023/03/18 02:38:50;;;;;;;10.83;8.67;;;;;;;;;;5017635;28;20176;-78
2023/03/18 02:41:17;;;;;;;10.30;7.90;;;;;;;;;;5017378;28;20184;-81
2023/03/18 02:43:44;;;;;;;11.27;8.80;;;;;;;;;;5017569;28;20196;-81
2023/03/18 02:46:29;;;;;;;11.20;8.67;;;;;;;;;;5017924;28;20187;-81
2023/03/18 02:48:56;;;;;;;11.90;8.63;;;;;;;;;;5017976;28;20235;-81
2023/03/18 02:51:23;;;;;;;11.03;8.30;;;;;;;;;;5017291;28;20208;-81
2023/03/18 02:53:49;;;;;;;13.07;8.70;;;;;;;;;;5008005;28;20211;-80
2023/03/18 02:56:16;;;;;;;11.13;8.40;;;;;;;;;;4997702;28;20193;-77
2023/03/18 02:58:42;;;;;;;10.63;8.30;;;;;;;;;;4998115;28;20177;-77
2023/03/18 03:01:08;;;;;;;13.33;9.00;;;;;;;;;;4987583;28;20189;-77
2023/03/18 03:03:38;;;;;;;12.27;8.40;;;;;;;;;;4995339;28;20236;-77
2023/03/18 03:06:04;;;;;;;17.10;9.60;;;;;;;;;;5016153;28;20192;-77
2023/03/18 03:08:30;;;;;;;12.17;9.47;;;;;;;;;;5001148;28;20181;-78
2023/03/18 03:10:56;;;;;;;14.00;10.13;;;;;;;;;;5000947;28;20317;-77
2023/03/18 03:13:23;;;;;;;19.73;10.80;;;;;;;;;;5004730;28;20224;-83
2023/03/18 03:15:49;;;;;;;16.00;10.57;;;;;;;;;;5036847;28;20176;-83
2023/03/18 03:18:15;;;;;;;14.20;10.97;;;;;;;;;;5036805;28;20183;-84
2023/03/18 03:20:42;;;;;;;16.60;11.87;;;;;;;;;;5020488;28;20183;-83
2023/03/18 03:23:11;;;;;;;18.57;12.30;;;;;;;;;;5016196;28;20185;-83
2023/03/18 03:25:37;;;;;;;22.00;12.90;;;;;;;;;;5016705;28;20180;-83
2023/03/18 03:28:05;;;;;;;21.38;14.15;;;;;;;;;;5011037;28;20486;-83
2023/03/18 03:30:31;;;;;;;19.20;13.33;;;;;;;;;;4999648;28;20248;-77
2023/03/18 03:32:59;;;;;;;21.53;13.70;;;;;;;;;;4985352;28;20197;-77
2023/03/18 03:35:25;;;;;;;20.98;16.05;;;;;;;;;;5004525;28;20476;-77
2023/03/18 03:37:52;;;;;;;21.95;17.17;;;;;;;;;;4999557;28;20428;-77
2023/03/18 03:40:19;;;;;;;20.70;14.93;;;;;;;;;;5028429;28;20225;-77
2023/03/18 03:42:45;;;;;;;20.33;14.57;;;;;;;;;;4998806;28;20200;-77
2023/03/18 03:45:12;;;;;;;21.93;15.27;;;;;;;;;;5033379;28;20176;-77
2023/03/18 03:47:39;;;;;;;22.80;15.73;;;;;;;;;;5010540;28;20176;-81
2023/03/18 03:50:06;;;;;;;22.80;16.20;;;;;;;;;;4997042;28;20188;-82
2023/03/18 03:52:32;;;;;;;25.10;16.57;;;;;;;;;;4997112;28;20216;-82
2023/03/18 03:54:59;;;;;;;23.57;17.33;;;;;;;;;;4997023;28;20185;-82
2023/03/18 03:57:26;;;;;;;27.30;16.93;;;;;;;;;;5006831;28;20195;-82
2023/03/18 03:59:52;;;;;;;25.33;17.80;;;;;;;;;;5033250;28;20199;-81
2023/03/18 04:02:20;;;;;;;24.27;18.30;;;;;;;;;;5036460;28;20179;-81
2023/03/18 04:04:46;;;;;;;26.07;17.90;;;;;;;;;;5018766;28;20180;-78
2023/03/18 04:07:13;;;;;;;26.40;18.30;;;;;;;;;;5016729;28;20208;-77
2023/03/18 04:09:40;;;;;;;23.60;18.40;;;;;;;;;;5016381;28;20187;-77
2023/03/18 04:12:06;;;;;;;27.97;18.80;;;;;;;;;;5016661;28;20232;-78
2023/03/18 04:14:32;;;;;;;30.03;18.80;;;;;;;;;;5030492;28;20219;-78
2023/03/18 04:16:59;;;;;;;27.07;19.13;;;;;;;;;;5024435;28;20176;-77
2023/03/18 04:19:26;;;;;;;27.43;19.90;;;;;;;;;;5039924;28;20176;-83
2023/03/18 04:21:52;;;;;;;29.67;19.83;;;;;;;;;;5022326;28;20239;-83
2023/03/18 04:24:19;;;;;;;27.80;18.53;;;;;;;;;;5031957;28;20195;-83
2023/03/18 04:26:45;;;;;;;28.30;19.10;;;;;;;;;;5040022;28;20271;-83
2023/03/18 04:29:11;;;;;;;30.73;19.27;;;;;;;;;;5023675;28;20251;-82
2023/03/18 04:31:37;;;;;;;26.37;19.97;;;;;;;;;;5037427;28;20212;-83
2023/03/18 04:34:03;;;;;;;26.67;19.83;;;;;;;;;;5043225;28;20191;-82
2023/03/18 04:36:29;;;;;;;25.37;19.87;;;;;;;;;;5020274;28;20324;-78
2023/03/18 04:38:55;;;;;;;30.77;21.50;;;;;;;;;;5003736;28;20188;-78
2023/03/18 04:41:22;;;;;;;34.70;22.00;;;;;;;;;;5003754;28;20191;-78
2023/03/18 04:43:48;;;;;;;29.17;22.00;;;;;;;;;;5019798;28;20187;-77
2023/03/18 04:46:15;;;;;;;29.57;21.20;;;;;;;;;;5019918;28;20190;-77
2023/03/18 04:48:42;;;;;;;35.97;22.13;;;;;;;;;;5019600;28;20199;-77
2023/03/18 04:51:08;;;;;;;31.30;22.63;;;;;;;;;;5036299;28;20212;-77
2023/03/18 04:53:38;;;;;;;29.60;22.70;;;;;;;;;;5019489;28;20181;-81
2023/03/18 04:56:04;;;;;;;32.03;22.73;;;;;;;;;;4999828;28;20272;-82
2023/03/18 04:58:31;;;;;;;29.87;22.93;;;;;;;;;;5000016;28;20209;-81
2023/03/18 05:00:57;;;;;;;32.93;23.03;;;;;;;;;;4999765;28;20185;-81
2023/03/18 05:03:23;;;;;;;32.90;22.80;;;;;;;;;;5020966;23;20230;-76
2023/03/18 05:05:49;;;;;;;31.50;22.80;;;;;;;;;;5022204;28;20271;-77
2023/03/18 05:08:16;;;;;;;31.43;23.40;;;;;;;;;;5022509;28;20180;-78
2023/03/18 05:10:42;;;;;;;30.43;23.00;;;;;;;;;;5022328;28;20212;-77
2023/03/18 05:13:09;;;;;;;34.20;23.70;;;;;;;;;;5022622;28;20179;-77
2023/03/18 05:15:36;;;;;;;33.03;24.13;;;;;;;;;;5038224;28;20180;-77
2023/03/18 05:18:03;;;;;;;33.53;23.57;;;;;;;;;;5038996;28;20314;-76
2023/03/18 05:20:29;;;;;;;35.17;24.10;;;;;;;;;;5022495;28;20180;-77
2023/03/18 05:22:55;;;;;;;32.07;24.10;;;;;;;;;;5022765;28;20199;-76
2023/03/18 05:25:21;;;;;;;35.07;23.60;;;;;;;;;;5021929;28;20184;-76
2023/03/18 05:27:48;;;;;;;34.00;23.80;;;;;;;;;;5021230;28;20192;-83
2023/03/18 05:30:14;;;;;;;30.17;24.13;;;;;;;;;;5037865;28;20183;-83
2023/03/18 05:32:41;;;;;;;39.47;25.13;;;;;;;;;;5019126;28;20239;-84
2023/03/18 05:35:08;;;;;;;33.03;24.07;;;;;;;;;;5012566;28;20192;-84
2023/03/18 05:37:34;;;;;;;33.80;24.23;;;;;;;;;;5051136;28;20208;-83
2023/03/18 05:40:00;;;;;;;37.27;24.83;;;;;;;;;;5038659;28;20246;-76
2023/03/18 05:42:26;;;;;;;37.80;24.80;;;;;;;;;;5017641;28;20185;-76
2023/03/18 05:44:54;;;;;;;36.13;25.03;;;;;;;;;;5034801;28;20200;-81
2023/03/18 05:47:20;;;;;;;31.53;24.13;;;;;;;;;;5044946;28;20211;-81
2023/03/18 05:49:47;;;;;;;32.43;24.93;;;;;;;;;;5018461;28;20181;-81
2023/03/18 05:52:16;;;;;;;34.10;25.27;;;;;;;;;;5018668;28;20217;-81
2023/03/18 05:54:42;;;;;;;35.77;24.60;;;;;;;;;;5002660;28;20283;-81
2023/03/18 05:57:08;;;;;;;35.03;25.83;;;;;;;;;;5006377;28;20250;-81
2023/03/18 05:59:35;;;;;;;34.60;25.53;;;;;;;;;;5038173;28;20176;-77
2023/03/18 06:02:01;;;;;;;38.07;25.13;;;;;;;;;;5038203;28;20183;-77
2023/03/18 06:04:27;;;;;;;32.80;24.57;;;;;;;;;;5021901;28;20263;-76
2023/03/18 06:06:54;;;;;;;35.67;25.23;;;;;;;;;;5038366;28;20176;-76
2023/03/18 06:09:21;;;;;;;34.63;25.83;;;;;;;;;;5037919;28;20191;-76
2023/03/18 06:11:47;;;;;;;34.77;25.83;;;;;;;;;;5023088;28;20235;-77
2023/03/18 06:14:14;;;;;;;34.30;25.63;;;;;;;;;;5038032;28;20187;-77
2023/03/18 06:16:40;;;;;;;37.60;26.07;;;;;;;;;;5012180;28;20189;-76
2023/03/18 06:19:07;;;;;;;32.17;25.87;;;;;;;;;;5052570;28;20218;-76
2023/03/18 06:21:33;;;;;;;37.30;26.70;;;;;;;;;;5043301;28;20207;-76
2023/03/18 06:23:59;;;;;;;37.07;26.43;;;;;;;;;;5021849;28;20195;-76
2023/03/18 06:26:26;;;;;;;36.77;26.80;;;;;;;;;;5045961;28;20180;-76
2023/03/18 06:28:52;;;;;;;35.33;26.70;;;;;;;;;;5053941;28;20194;-77
2023/03/18 06:31:18;;;;;;;36.47;27.30;;;;;;;;;;5053094;28;20201;-76
2023/03/18 06:33:45;;;;;;;39.07;28.03;;;;;;;;;;5028513;28;20326;-83
2023/03/18 06:36:11;;;;;;;37.00;27.17;;;;;;;;;;5016080;28;20194;-84
2023/03/18 06:38:37;;;;;;;31.53;26.33;;;;;;;;;;5042777;28;20172;-83
2023/03/18 06:41:03;;;;;;;38.63;27.40;;;;;;;;;;5045366;28;20263;-83
2023/03/18 06:43:30;;;;;;;34.23;27.03;;;;;;;;;;5012724;28;20191;-83
2023/03/18 06:45:56;;;;;;;34.43;27.27;;;;;;;;;;5029945;28;20192;-84
2023/03/18 06:48:22;;;;;;;36.00;27.73;;;;;;;;;;5032767;28;20219;-83
2023/03/18 06:50:48;;;;;;;37.30;26.97;;;;;;;;;;5042646;28;20231;-84
2023/03/18 06:53:15;;;;;;;36.17;26.73;;;;;;;;;;5009924;28;20180;-84
2023/03/18 06:55:41;;;;;;;33.20;26.43;;;;;;;;;;5012560;28;20211;-84
2023/03/18 06:58:07;;;;;;;35.87;26.70;;;;;;;;;;5014517;28;20180;-83
2023/03/18 07:00:34;;;;;;;33.67;27.07;;;;;;;;;;5015072;28;20260;-83
2023/03/18 07:03:00;;;;;;;35.97;27.03;;;;;;;;;;5041728;28;20224;-83
2023/03/18 07:05:27;;;;;;;33.53;26.93;;;;;;;;;;5034069;28;20210;-84
2023/03/18 07:07:53;;;;;;;35.90;26.63;;;;;;;;;;5016855;28;20191;-82
2023/03/18 07:10:21;;;;;;;34.97;27.67;;;;;;;;;;5020673;28;20195;-82
2023/03/18 07:12:47;;;;;;;35.60;27.10;;;;;;;;;;5053611;28;20232;-82
2023/03/18 07:15:13;;;;;;;31.63;26.33;;;;;;;;;;5044998;28;20262;-82
2023/03/18 07:17:39;;;;;;;34.03;26.33;;;;;;;;;;5009869;28;20188;-81
2023/03/18 07:20:06;;;;;;;36.23;27.07;;;;;;;;;;5042670;28;20221;-81
2023/03/18 07:22:32;;;;;;;35.60;26.50;;;;;;;;;;5045796;28;20180;-82
2023/03/18 07:24:58;;;;;;;30.43;27.13;;;;;;;;;;5043600;28;20180;-82
2023/03/18 07:27:24;;;;;;;31.80;25.60;;;;;;;;;;5026976;28;20203;-84
2023/03/18 07:29:50;;;;;;;30.37;25.43;;;;;;;;;;5013558;28;20200;-83
2023/03/18 07:32:18;;;;;;;31.67;25.70;;;;;;;;;;5047703;28;20279;-83
2023/03/18 07:34:47;;;;;;;28.97;24.13;;;;;;;;;;5032255;28;20176;-83
2023/03/18 07:37:13;;;;;;;29.80;23.90;;;;;;;;;;5043602;28;20183;-83
2023/03/18 07:39:39;;;;;;;30.97;24.93;;;;;;;;;;5050219;28;20275;-77
2023/03/18 07:42:05;;;;;;;32.33;24.43;;;;;;;;;;5036392;28;20188;-77
2023/03/18 07:44:31;;;;;;;32.83;24.67;;;;;;;;;;5016554;28;20191;-77
2023/03/18 07:46:58;;;;;;;30.80;24.13;;;;;;;;;;5025239;28;20185;-76
2023/03/18 07:49:24;;;;;;;27.63;23.40;;;;;;;;;;5017050;28;20184;-76
2023/03/18 07:51:51;;;;;;;30.03;24.57;;;;;;;;;;5012304;28;20226;-77
2023/03/18 07:54:17;;;;;;;28.33;25.23;;;;;;;;;;5033097;28;20195;-77
2023/03/18 07:56:43;;;;;;;29.20;24.00;;;;;;;;;;5033933;28;20240;-84
2023/03/18 07:59:09;;;;;;;31.67;24.23;;;;;;;;;;5016554;28;20207;-84
2023/03/18 08:01:35;;;;;;;27.97;24.00;;;;;;;;;;5032541;28;20271;-84
2023/03/18 08:04:01;;;;;;;31.30;24.47;;;;;;;;;;5016196;28;20228;-84
2023/03/18 08:06:27;;;;;;;28.30;23.47;;;;;;;;;;4999914;28;20218;-84
2023/03/18 08:08:54;;;;;;;28.53;23.20;;;;;;;;;;5000038;28;20224;-84
2023/03/18 08:11:20;;;;;;;25.77;21.93;;;;;;;;;;5033796;28;20208;-84
2023/03/18 08:13:46;;;;;;;26.90;21.70;;;;;;;;;;4999953;28;20208;-76
2023/03/18 08:16:12;;;;;;;29.53;22.60;;;;;;;;;;5016202;28;20173;-77
2023/03/18 08:18:38;;;;;;;27.77;22.03;;;;;;;;;;5032415;28;20229;-77
2023/03/18 08:21:04;;;;;;;25.60;21.27;;;;;;;;;;5016350;28;20180;-76
2023/03/18 08:23:30;;;;;;;25.27;21.10;;;;;;;;;;5033273;28;20189;-77
2023/03/18 08:25:56;;;;;;;23.77;19.73;;;;;;;;;;5037544;28;20192;-77
2023/03/18 08:28:22;;;;;;;21.57;19.10;;;;;;;;;;5019711;28;20187;-77
2023/03/18 08:30:52;;;;;;;25.13;18.77;;;;;;;;;;5035841;28;20231;-78
2023/03/18 08:33:18;;;;;;;20.77;17.10;;;;;;;;;;5032156;28;20181;-77
2023/03/18 08:35:45;;;;;;;18.90;17.00;;;;;;;;;;5015871;28;20184;-78
2023/03/18 08:38:11;;;;;;;20.70;17.00;;;;;;;;;;5015823;28;20235;-78
2023/03/18 08:40:40;;;;;;;18.77;16.30;;;;;;;;;;5015896;28;20295;-78
2023/03/18 08:43:06;;;;;;;17.97;15.53;;;;;;;;;;5015879;28;20172;-77
2023/03/18 08:45:32;;;;;;;19.77;16.40;;;;;;;;;;5015873;28;20227;-78
2023/03/18 08:47:59;;;;;;;19.53;17.47;;;;;;;;;;5014731;28;20187;-77
2023/03/18 08:50:27;;;;;;;22.30;17.63;;;;;;;;;;5014536;28;20189;-77
2023/03/18 08:52:55;;;;;;;19.07;16.67;;;;;;;;;;5015643;28;20187;-77
2023/03/18 08:55:21;;;;;;;18.97;16.43;;;;;;;;;;5015676;28;20177;-77
2023/03/18 08:57:48;;;;;;;18.77;16.23;;;;;;;;;;5018688;28;20267;-76
2023/03/18 09:00:15;;;;;;;18.07;15.67;;;;;;;;;;5033924;28;20180;-77
2023/03/18 09:02:41;;;;;;;17.40;15.60;;;;;;;;;;5022428;28;20211;-78
2023/03/18 09:05:07;;;;;;;17.23;15.50;;;;;;;;;;5037036;28;20202;-78
2023/03/18 09:07:33;;;;;;;18.63;16.47;;;;;;;;;;5020655;28;20194;-78
2023/03/18 09:09:59;;;;;;;18.60;16.70;;;;;;;;;;5020862;28;20192;-78
2023/03/18 09:12:25;;;;;;;19.27;16.40;;;;;;;;;;5018692;28;20259;-78
2023/03/18 09:14:51;;;;;;;15.67;14.13;;;;;;;;;;5021205;28;20222;-78
2023/03/18 09:17:17;;;;;;;14.80;13.20;;;;;;;;;;5022578;28;20242;-78
2023/03/18 09:19:43;;;;;;;13.80;12.47;;;;;;;;;;5022599;28;20211;-78
2023/03/18 09:22:10;;;;;;;12.83;11.53;;;;;;;;;;5055497;28;20172;-78
2023/03/18 09:24:36;;;;;;;13.00;11.60;;;;;;;;;;5020923;28;20195;-79
2023/03/18 09:27:02;;;;;;;14.07;12.47;;;;;;;;;;5038115;28;20176;-78
2023/03/18 09:29:28;;;;;;;14.47;12.63;;;;;;;;;;5036940;28;20192;-78
2023/03/18 09:31:54;;;;;;;13.67;12.13;;;;;;;;;;5022223;28;20211;-78
2023/03/18 09:34:21;;;;;;;13.60;12.00;;;;;;;;;;5034809;28;20184;-78
2023/03/18 09:36:49;;;;;;;10.77;9.67;;;;;;;;;;5032881;28;20242;-83
2023/03/18 09:39:17;;;;;;;10.37;9.23;;;;;;;;;;5022467;28;20263;-84
2023/03/18 09:41:58;;;;;;;11.60;9.03;;;;;;;;;;5055050;28;20187;-83
2023/03/18 09:44:32;;;;;;;10.47;9.37;;;;;;;;;;5054929;28;20190;-84
2023/03/18 09:47:12;;;;;;;9.30;8.40;;;;;;;;;;5055106;28;20191;-84
2023/03/18 09:49:38;;;;;;;8.97;8.07;;;;;;;;;;5054873;28;20206;-84
2023/03/18 09:52:11;;;;;;;9.20;8.30;;;;;;;;;;5054731;28;20239;-83
2023/03/18 09:54:42;;;;;;;10.53;9.13;;;;;;;;;;5055131;28;20171;-86
2023/03/18 09:57:15;;;;;;;10.17;8.90;;;;;;;;;;5055673;28;20219;-85
2023/03/18 09:59:46;;;;;;;10.47;9.27;;;;;;;;;;5054983;28;20176;-84
2023/03/18 10:02:39;;;;;;;9.50;8.50;;;;;;;;;;5055498;28;20176;-85
2023/03/18 10:05:09;;;;;;;9.60;8.60;;;;;;;;;;5035224;28;20191;-86
2023/03/18 10:07:40;;;;;;;9.33;8.40;;;;;;;;;;5051639;28;20231;-86
2023/03/18 10:10:29;;;;;;;9.20;8.30;;;;;;;;;;5037548;28;20179;-78
2023/03/18 10:13:06;;;;;;;9.77;8.23;;;;;;;;;;5027151;28;20199;-78
2023/03/18 10:15:36;;;;;;;9.20;8.17;;;;;;;;;;5037621;28;20186;-79
2023/03/18 10:18:09;;;;;;;10.27;8.37;;;;;;;;;;5037751;28;20172;-78
2023/03/18 10:20:52;;;;;;;9.13;8.23;;;;;;;;;;5037590;28;20180;-78
2023/03/18 10:23:21;;;;;;;10.38;9.27;;;;;;;;;;5054476;28;20404;-78
2023/03/18 10:25:52;;;;;;;9.50;8.60;;;;;;;;;;5034251;28;20185;-78
2023/03/18 10:28:36;;;;;;;9.37;8.37;;;;;;;;;;5018214;28;20211;-79
2023/03/18 10:31:22;;;;;;;9.23;8.33;;;;;;;;;;5035350;28;20287;-78
2023/03/18 10:33:54;;;;;;;9.90;8.90;;;;;;;;;;5035102;28;20236;-78
2023/03/18 10:36:39;;;;;;;10.40;9.27;;;;;;;;;;5017426;28;20200;-78
2023/03/18 10:39:10;;;;;;;10.47;9.37;;;;;;;;;;5017678;28;20177;-78
2023/03/18 10:41:37;;;;;;;9.40;8.40;;;;;;;;;;5017412;28;20204;-79
2023/03/18 10:44:13;;;;;;;12.47;9.63;;;;;;;;;;5031116;28;20211;-76
2023/03/18 10:46:40;;;;;;;8.93;8.03;;;;;;;;;;5054697;28;20184;-77
2023/03/18 10:49:16;;;;;;;9.00;8.03;;;;;;;;;;5037046;28;20183;-77
2023/03/18 10:51:51;;;;;;;8.47;7.23;;;;;;;;;;5036891;28;20271;-77
2023/03/18 10:54:21;;;;;;;7.80;7.10;;;;;;;;;;5036904;28;20190;-78
2023/03/18 10:56:47;;;;;;;7.93;7.10;;;;;;;;;;5037263;28;20237;-77
2023/03/18 10:59:18;;;;;;;7.43;6.70;;;;;;;;;;5034757;28;20175;-77
2023/03/18 11:01:46;;;;;;;7.40;6.70;;;;;;;;;;5016948;28;20224;-79
2023/03/18 11:04:14;;;;;;;6.93;6.23;;;;;;;;;;5055164;23;20285;-86
2023/03/18 11:06:40;;;;;;;6.50;5.80;;;;;;;;;;5036628;28;20176;-84
2023/03/18 11:09:11;;;;;;;7.03;6.30;;;;;;;;;;5054434;28;20167;-84
2023/03/18 11:11:42;;;;;;;5.97;5.30;;;;;;;;;;5054511;28;20203;-84
2023/03/18 11:14:12;;;;;;;6.43;5.37;;;;;;;;;;5036667;28;20183;-84
2023/03/18 11:16:41;;;;;;;6.97;5.07;;;;;;;;;;5036633;28;20199;-77
2023/03/18 11:19:38;;;;;;;5.03;4.53;;;;;;;;;;5029283;28;20184;-77
2023/03/18 11:22:07;;;;;;;5.13;4.63;;;;;;;;;;5021988;28;20201;-77
2023/03/18 11:24:42;;;;;;;6.23;5.20;;;;;;;;;;5015777;28;20181;-77
2023/03/18 11:27:12;;;;;;;5.60;5.00;;;;;;;;;;5016682;28;20184;-77
2023/03/18 11:29:40;;;;;;;4.83;4.43;;;;;;;;;;5016611;28;20184;-77
2023/03/18 11:32:22;;;;;;;5.20;4.70;;;;;;;;;;5016347;28;20216;-77
2023/03/18 11:34:54;;;;;;;4.73;3.90;;;;;;;;;;5016898;28;20177;-85
2023/03/18 11:37:20;;;;;;;4.50;3.70;;;;;;;;;;5029595;28;20198;-83
2023/03/18 11:39:47;;;;;;;5.27;4.20;;;;;;;;;;5033051;28;20205;-84
2023/03/18 11:42:17;;;;;;;5.67;4.40;;;;;;;;;;5032962;28;20242;-84
2023/03/18 11:44:44;;;;;;;6.00;4.80;;;;;;;;;;5032853;28;20184;-84
2023/03/18 11:47:19;;;;;;;5.90;5.00;;;;;;;;;;5033076;28;20180;-85
2023/03/18 11:49:45;;;;;;;5.27;4.70;;;;;;;;;;5032922;28;20184;-77
2023/03/18 11:52:23;;;;;;;6.00;5.40;;;;;;;;;;5032627;28;20212;-77
2023/03/18 11:54:55;;;;;;;5.20;4.43;;;;;;;;;;5032856;28;20267;-77
2023/03/18 11:57:24;;;;;;;5.63;4.83;;;;;;;;;;5032604;28;20181;-77
2023/03/18 11:59:53;;;;;;;6.00;4.07;;;;;;;;;;5033922;28;20176;-77
2023/03/18 12:02:30;;;;;;;6.53;5.30;;;;;;;;;;5033751;28;20200;-77
2023/03/18 12:05:15;;;;;;;5.00;4.43;;;;;;;;;;5031732;28;20445;-77
2023/03/18 12:08:00;;;;;;;4.57;4.10;;;;;;;;;;5032641;28;20239;-82
2023/03/18 12:10:34;;;;;;;5.53;5.03;;;;;;;;;;5032390;28;20184;-82
2023/03/18 12:13:20;;;;;;;5.47;4.70;;;;;;;;;;5032472;28;20184;-82
2023/03/18 12:15:51;;;;;;;6.47;5.10;;;;;;;;;;5032478;28;20176;-82
2023/03/18 12:18:18;;;;;;;6.30;4.83;;;;;;;;;;5032866;28;20181;-82
2023/03/18 12:21:03;;;;;;;6.50;5.27;;;;;;;;;;5032175;28;20184;-82
2023/03/18 12:23:56;;;;;;;6.80;5.63;;;;;;;;;;5032526;28;20184;-84
2023/03/18 12:26:40;;;;;;;5.97;5.27;;;;;;;;;;5033554;28;20215;-83
2023/03/18 12:29:08;;;;;;;6.07;4.83;;;;;;;;;;5034405;28;20184;-84
2023/03/18 12:31:54;;;;;;;7.17;5.53;;;;;;;;;;5032727;28;20207;-84
2023/03/18 12:34:39;;;;;;;5.97;5.07;;;;;;;;;;5021984;28;20199;-84
2023/03/18 12:37:31;;;;;;;5.33;4.83;;;;;;;;;;5056039;28;20226;-84
2023/03/18 12:39:57;;;;;;;8.00;5.43;;;;;;;;;;5057955;28;20254;-82
2023/03/18 12:42:41;;;;;;;5.43;4.73;;;;;;;;;;5039969;28;20223;-82
2023/03/18 12:45:14;;;;;;;6.30;4.90;;;;;;;;;;5025124;28;20283;-82
2023/03/18 12:47:49;;;;;;;7.00;5.20;;;;;;;;;;5057321;28;20175;-82
2023/03/18 12:50:18;;;;;;;6.37;4.63;;;;;;;;;;5039184;28;20192;-83
2023/03/18 12:52:47;;;;;;;5.13;4.57;;;;;;;;;;5039357;28;20299;-83
2023/03/18 12:55:18;;;;;;;5.93;4.43;;;;;;;;;;5039480;28;20176;-82
2023/03/18 12:57:49;;;;;;;5.43;4.10;;;;;;;;;;5039751;28;20263;-77
2023/03/18 13:00:22;;;;;;;4.10;3.70;;;;;;;;;;5039597;28;20172;-78
2023/03/18 13:03:03;;;;;;;4.27;3.80;;;;;;;;;;5039628;28;20180;-77
2023/03/18 13:05:36;;;;;;;6.73;4.03;;;;;;;;;;5056867;28;20319;-77
2023/03/18 13:08:16;;;;;;;5.50;4.13;;;;;;;;;;5056964;28;20179;-77
2023/03/18 13:10:45;;;;;;;5.70;3.80;;;;;;;;;;5039003;28;20186;-77
2023/03/18 13:13:12;;;;;;;5.83;4.37;;;;;;;;;;5039241;28;20176;-82
2023/03/18 13:15:44;;;;;;;8.07;3.97;;;;;;;;;;5039103;28;20267;-82
2023/03/18 13:18:16;;;;;;;6.27;3.90;;;;;;;;;;5039122;28;20187;-81
2023/03/18 13:20:43;;;;;;;5.87;3.90;;;;;;;;;;5039053;28;20238;-82
2023/03/18 13:23:14;;;;;;;4.30;3.87;;;;;;;;;;5022741;28;20229;-82
2023/03/18 13:25:43;;;;;;;6.77;3.93;;;;;;;;;;5056716;28;20177;-82
2023/03/18 13:28:21;;;;;;;6.13;4.13;;;;;;;;;;5039046;28;20180;-82
2023/03/18 13:30:47;;;;;;;7.27;4.33;;;;;;;;;;5056436;28;20172;-84
2023/03/18 13:33:33;;;;;;;4.60;4.03;;;;;;;;;;5056806;28;20175;-84
2023/03/18 13:36:18;;;;;;;4.77;4.30;;;;;;;;;;5056541;28;20168;-84
2023/03/18 13:38:50;;;;;;;4.97;4.47;;;;;;;;;;5056600;28;20176;-84
2023/03/18 13:41:21;;;;;;;6.63;4.93;;;;;;;;;;5038717;28;20180;-83
2023/03/18 13:43:49;;;;;;;7.73;4.40;;;;;;;;;;5038926;28;20271;-84
2023/03/18 13:46:19;;;;;;;5.10;4.50;;;;;;;;;;5022629;28;20180;-81
2023/03/18 13:48:45;;;;;;;6.00;4.90;;;;;;;;;;5037622;28;20180;-82
2023/03/18 13:51:38;;;;;;;5.93;5.00;;;;;;;;;;5038713;28;20238;-82
2023/03/18 13:54:05;;;;;;;10.03;6.30;;;;;;;;;;5055774;28;20187;-81
2023/03/18 13:56:31;;;;;;;10.33;5.30;;;;;;;;;;5022208;28;20187;-81
2023/03/18 13:59:01;;;;;;;10.10;5.93;;;;;;;;;;5055983;28;20172;-80
2023/03/18 14:01:32;;;;;;;11.23;6.13;;;;;;;;;;5038304;28;20180;-80
2023/03/18 14:04:00;;;;;;;10.90;6.43;;;;;;;;;;5055933;28;20223;-76
2023/03/18 14:06:36;;;;;;;9.30;6.10;;;;;;;;;;5038244;28;20275;-77
2023/03/18 14:09:21;;;;;;;7.77;6.13;;;;;;;;;;5038241;28;20184;-77
2023/03/18 14:11:48;;;;;;;10.63;6.60;;;;;;;;;;5037959;28;20216;-76
2023/03/18 14:14:41;;;;;;;7.80;6.30;;;;;;;;;;5056169;28;20179;-76
2023/03/18 14:17:21;;;;;;;7.60;6.33;;;;;;;;;;5014607;28;20188;-77
2023/03/18 14:19:47;;;;;;;9.67;6.87;;;;;;;;;;5031510;28;20186;-80
2023/03/18 14:22:19;;;;;;;8.60;6.60;;;;;;;;;;5037602;28;20176;-81
2023/03/18 14:24:46;;;;;;;8.05;7.15;;;;;;;;;;5053664;28;20415;-82
2023/03/18 14:27:20;;;;;;;10.77;6.67;;;;;;;;;;5055822;28;20168;-81
2023/03/18 14:29:47;;;;;;;8.00;6.50;;;;;;;;;;5021811;28;20192;-81
2023/03/18 14:32:22;;;;;;;8.53;5.83;;;;;;;;;;5028790;28;20239;-82
2023/03/18 14:35:26;;;;;;;9.40;6.27;;;;;;;;;;5029506;28;20248;-81
2023/03/18 14:38:01;;;;;;;9.40;5.73;;;;;;;;;;5019773;28;20176;-77
2023/03/18 14:40:27;;;;;;;6.97;5.90;;;;;;;;;;5055314;28;20163;-77